Morse, Louisiana
Current Conditions -  °F | °C
As of 6:35 PM on Sunday 21 Dec 2014 (Local Time) from K3R7 Reporting Station
Overcast Overcast  
Wind Chill: 50°   Ceiling: 500
Heat Index: 50°   Visibility: 10mi
Dew Point: 49°   Wind: 5mph
Humidity: 96%   Direction: 10°N
Pressure: 29.99"   Gusts: NA
Location:  30.12°N, 92.5°W
Report Text: K3R7 220035Z AUTO 01004KT 10SM OVC005 10/10 A2999 RMK AO2 T01020096
Loading
Personal Weather Stations






























Interactive Weather Map New forecast layout! Learn more

10-Day Weather Forecast

Advertisements
Track Severe Weather on mobile